Report METAR

 

KSJC - San Jose, California, USA
Distance from station: NE 14km
Dati ricevuti: 01/02/2023 02:53
Few Clouds
Few Clouds
 Vento da NO
Vento: NO 7 km/h
Temperatura: 11°C
P.to Rugiada: -6°C
Umidità: 30%
Barometro: 1021 hPa
Nuvole: Few Clouds
Visibility: 16 km
Cloud details: Few Clouds 2743 m
2023/02/01 01:53 KSJC 010153Z 31004KT 10SM FEW090 11/M06 A3015 RMK AO2 SLP208 T01111061
KNUQ - Moffett Nas/Mtn, California, USA
Distance from station: N 14km
Dati ricevuti: 01/02/2023 03:55
Sereno
Sereno
 Vento da calmo
Vento: Calma
Temperatura: 10°C
P.to Rugiada: -4°C
Umidità: 37%
Barometro: 1021.3 hPa
Nuvole: Sereno
Visibility: 16 km
2023/02/01 02:55 KNUQ 010255Z AUTO 00000KT 10SM CLR 10/M04 A3016 RMK AO2
 
KPAO - Palo Alto, California, USA
Distance from station: NNO 23km
Dati ricevuti: 01/02/2023 03:47
Sereno
Sereno
 Vento da O
Vento: O 9 km/h
Temperatura: 7°C
Temperatura Vento: 6°C
P.to Rugiada: -2°C
Umidità: 53%
Barometro: 1021.7 hPa
Nuvole: Sereno
Visibility: 16 km
2023/02/01 02:47 KPAO 010247Z 28005KT 10SM SKC 07/M02 A3017
KRHV - San Jose/Reid, California, USA
Distance from station: ENE 19km
Dati ricevuti: 01/02/2023 03:47
Sereno
Sereno
 Vento da Variabile
Vento: Variabile 6 km/h
Temperatura: 11°C
P.to Rugiada: -3°C
Umidità: 38%
Barometro: 1021.7 hPa
Nuvole: Sereno
Visibility: 16 km
2023/02/01 02:47 KRHV 010247Z VRB03KT 10SM SKC 11/M03 A3017
 
KOAK - Oakland, California, USA
Distance from station: NNO 50km
Dati ricevuti: 01/02/2023 03:53
Few Clouds
Few Clouds
 Vento da NNO
Vento: NNO 7 km/h
Temperatura: 9°C
Temperatura Vento: 8°C
P.to Rugiada: 1°C
Umidità: 58%
Barometro: 1022 hPa
Nuvole: Few Clouds
Visibility: 16 km
Cloud details: Few Clouds 5486 m
2023/02/01 02:53 KOAK 010253Z 33004KT 10SM FEW180 09/01 A3018 RMK AO2 SLP218 T00940006 53009
KSQL - San Carlos Airpo, California, USA
Distance from station: NO 34km
Dati ricevuti: 01/02/2023 00:52
DATI Obsoleti
Sereno
Sereno
 Vento da calmo
Vento: Calma
Temperatura: 14°C
P.to Rugiada: -8°C
Umidità: 21%
Barometro: 1021 hPa
Nuvole: Sereno
Visibility: 16 km
2023/01/31 23:52 KSQL 312352Z 00000KT 10SM CLR 14/M08 A3015
 
KSFO - San Francisco, California, USA
Distance from station: NO 49km
Dati ricevuti: 01/02/2023 03:56
Few Clouds
Few Clouds
 Vento da O
Vento: O 20 km/h
Temperatura: 11°C
P.to Rugiada: 1°C
Umidità: 50%
Barometro: 1021.7 hPa
Nuvole: Few Clouds
Visibility: 16 km
Cloud details: Few Clouds 6096 m
2023/02/01 02:56 KSFO 010256Z 28011KT 10SM FEW200 11/01 A3017 RMK AO2 SLP215 T01060006 53010
KE16 - San Martin, California, USA
Distance from station: ESE 43km
Dati ricevuti: 01/02/2023 03:35
Sereno
Sereno
 Vento da N
Vento: N 7 km/h
Temperatura: 10°C
Temperatura Vento: 9°C
P.to Rugiada: -5°C
Umidità: 35%
Barometro: 1021.7 hPa
Nuvole: Sereno
Visibility: 16 km
2023/02/01 02:35 KE16 010235Z AUTO 35004KT 10SM CLR 10/M05 A3017 RMK AO2 PWINO PNO
 
KWVI - Watsonville, California, USA
Distance from station: SSE 44km
Dati ricevuti: 01/02/2023 03:53
Sereno
Sereno
 Vento da calmo
Vento: Calma
Temperatura: 7°C
P.to Rugiada: 0°C
Umidità: 61%
Barometro: 1021.7 hPa
Nuvole: Sereno
Visibility: 16 km
2023/02/01 02:53 KWVI 010253Z AUTO 00000KT 10SM CLR 07/00 A3017 RMK AO2 SLP215 T00670000 53011
KHAF - Half Moon Bay, California, USA
Distance from station: ONO 50km
Dati ricevuti: 01/02/2023 03:55
Sereno
Sereno
 Vento da NNE
Vento: NNE 7 km/h
Temperatura: 9°C
Temperatura Vento: 8°C
P.to Rugiada: -5°C
Umidità: 37%
Barometro: 1021.7 hPa
Nuvole: Sereno
Visibility: 16 km
2023/02/01 02:55 KHAF 010255Z AUTO 02004KT 10SM CLR 09/M05 A3017 RMK AO2
 
KHWD - Hayward, California, USA
Distance from station: N 44km
Dati ricevuti: 01/02/2023 03:54
Sereno
Sereno
 Vento da N
Vento: N 9 km/h
Temperatura: 11°C
P.to Rugiada: -1°C
Umidità: 44%
Barometro: 1021.7 hPa
Nuvole: Sereno
Visibility: 16 km
2023/02/01 02:54 KHWD 010254Z AUTO 36005KT 10SM CLR 11/M01 A3017 RMK AO2 SLP225 T01061011 53010
KLVK - Livermore, California, USA
Distance from station: NNE 51km
Dati ricevuti: 01/02/2023 03:53
Sereno
Sereno
 Vento da ENE
Vento: ENE 6 km/h
Temperatura: 7°C
P.to Rugiada: -7°C
Umidità: 37%
Barometro: 1021.7 hPa
Nuvole: Sereno
Visibility: 16 km
2023/02/01 02:53 KLVK 010253Z 07003KT 10SM CLR 07/M07 A3017 RMK AO2 SLP215 T00721072 53012